sensor_id;sensor_type;location;lat;lon;timestamp;temperature;humidity
7399;DHT22;3740;50.700;7.184;2023-09-19T00:01:07;17.50;99.90
7399;DHT22;3740;50.700;7.184;2023-09-19T00:03:34;17.40;99.90
7399;DHT22;3740;50.700;7.184;2023-09-19T00:06:03;17.40;99.90
7399;DHT22;3740;50.700;7.184;2023-09-19T00:08:33;17.40;99.90
7399;DHT22;3740;50.700;7.184;2023-09-19T00:10:58;17.40;99.90
7399;DHT22;3740;50.700;7.184;2023-09-19T00:13:31;17.40;99.90
7399;DHT22;3740;50.700;7.184;2023-09-19T00:15:57;17.40;99.90
7399;DHT22;3740;50.700;7.184;2023-09-19T00:18:25;17.40;99.90
7399;DHT22;3740;50.700;7.184;2023-09-19T00:21:01;17.30;99.90
7399;DHT22;3740;50.700;7.184;2023-09-19T00:23:27;17.30;99.90
7399;DHT22;3740;50.700;7.184;2023-09-19T00:25:54;17.30;99.90
7399;DHT22;3740;50.700;7.184;2023-09-19T00:28:23;17.30;99.90
7399;DHT22;3740;50.700;7.184;2023-09-19T00:30:49;17.20;99.90
7399;DHT22;3740;50.700;7.184;2023-09-19T00:33:18;17.20;99.90
7399;DHT22;3740;50.700;7.184;2023-09-19T00:35:52;17.20;99.90
7399;DHT22;3740;50.700;7.184;2023-09-19T00:38:18;17.20;99.90
7399;DHT22;3740;50.700;7.184;2023-09-19T00:40:50;17.30;99.90
7399;DHT22;3740;50.700;7.184;2023-09-19T00:43:16;17.20;99.90
7399;DHT22;3740;50.700;7.184;2023-09-19T00:45:44;17.20;99.90
7399;DHT22;3740;50.700;7.184;2023-09-19T00:48:11;17.30;99.90
7399;DHT22;3740;50.700;7.184;2023-09-19T00:50:37;17.20;99.90
7399;DHT22;3740;50.700;7.184;2023-09-19T00:53:07;17.20;99.90
7399;DHT22;3740;50.700;7.184;2023-09-19T00:55:34;17.20;99.90
7399;DHT22;3740;50.700;7.184;2023-09-19T00:58:00;17.20;99.90
7399;DHT22;3740;50.700;7.184;2023-09-19T01:00:25;17.20;99.90
7399;DHT22;3740;50.700;7.184;2023-09-19T01:02:51;17.10;99.90
7399;DHT22;3740;50.700;7.184;2023-09-19T01:05:17;17.10;99.90
7399;DHT22;3740;50.700;7.184;2023-09-19T01:07:44;17.10;99.90
7399;DHT22;3740;50.700;7.184;2023-09-19T01:10:11;17.10;99.90
7399;DHT22;3740;50.700;7.184;2023-09-19T01:12:53;17.00;99.90
7399;DHT22;3740;50.700;7.184;2023-09-19T01:29:51;17.10;99.90
7399;DHT22;3740;50.700;7.184;2023-09-19T01:32:19;17.10;99.90
7399;DHT22;3740;50.700;7.184;2023-09-19T01:34:55;17.00;99.90
7399;DHT22;3740;50.700;7.184;2023-09-19T01:37:29;17.00;99.90
7399;DHT22;3740;50.700;7.184;2023-09-19T01:40:03;17.00;99.90
7399;DHT22;3740;50.700;7.184;2023-09-19T01:42:59;17.00;99.90
7399;DHT22;3740;50.700;7.184;2023-09-19T01:46:12;17.00;99.90
7399;DHT22;3740;50.700;7.184;2023-09-19T01:48:49;17.10;99.90
7399;DHT22;3740;50.700;7.184;2023-09-19T01:51:34;17.10;99.90
7399;DHT22;3740;50.700;7.184;2023-09-19T01:54:06;17.10;99.90
7399;DHT22;3740;50.700;7.184;2023-09-19T01:56:42;17.10;99.90
7399;DHT22;3740;50.700;7.184;2023-09-19T01:59:13;17.20;99.90
7399;DHT22;3740;50.700;7.184;2023-09-19T02:01:42;17.20;99.90
7399;DHT22;3740;50.700;7.184;2023-09-19T02:04:10;17.10;99.90
7399;DHT22;3740;50.700;7.184;2023-09-19T02:06:40;17.10;99.90
7399;DHT22;3740;50.700;7.184;2023-09-19T02:09:05;17.10;99.90
7399;DHT22;3740;50.700;7.184;2023-09-19T02:11:31;17.10;99.90
7399;DHT22;3740;50.700;7.184;2023-09-19T02:13:57;17.10;99.90
7399;DHT22;3740;50.700;7.184;2023-09-19T02:16:22;17.00;99.90
7399;DHT22;3740;50.700;7.184;2023-09-19T02:18:49;17.10;99.90
7399;DHT22;3740;50.700;7.184;2023-09-19T02:21:17;17.10;99.90
7399;DHT22;3740;50.700;7.184;2023-09-19T02:23:46;17.10;99.90
7399;DHT22;3740;50.700;7.184;2023-09-19T02:26:13;17.10;99.90
7399;DHT22;3740;50.700;7.184;2023-09-19T02:28:39;17.10;99.90
7399;DHT22;3740;50.700;7.184;2023-09-19T02:31:04;17.10;99.90
7399;DHT22;3740;50.700;7.184;2023-09-19T02:33:33;17.10;99.90
7399;DHT22;3740;50.700;7.184;2023-09-19T02:35:59;17.00;99.90
7399;DHT22;3740;50.700;7.184;2023-09-19T02:38:26;17.00;99.90
7399;DHT22;3740;50.700;7.184;2023-09-19T02:40:52;17.00;99.90
7399;DHT22;3740;50.700;7.184;2023-09-19T02:43:18;16.90;99.90
7399;DHT22;3740;50.700;7.184;2023-09-19T02:45:45;16.90;99.90
7399;DHT22;3740;50.700;7.184;2023-09-19T02:48:12;16.90;99.90
7399;DHT22;3740;50.700;7.184;2023-09-19T02:50:38;17.00;99.90
7399;DHT22;3740;50.700;7.184;2023-09-19T02:53:05;16.90;99.90
7399;DHT22;3740;50.700;7.184;2023-09-19T02:55:32;16.90;99.90
7399;DHT22;3740;50.700;7.184;2023-09-19T02:57:57;16.90;99.90
7399;DHT22;3740;50.700;7.184;2023-09-19T03:00:23;16.90;99.90
7399;DHT22;3740;50.700;7.184;2023-09-19T03:02:53;16.80;99.90
7399;DHT22;3740;50.700;7.184;2023-09-19T03:05:20;16.80;99.90
7399;DHT22;3740;50.700;7.184;2023-09-19T03:07:47;16.70;99.90
7399;DHT22;3740;50.700;7.184;2023-09-19T03:10:16;16.70;99.90
7399;DHT22;3740;50.700;7.184;2023-09-19T03:12:42;16.70;99.90
7399;DHT22;3740;50.700;7.184;2023-09-19T03:15:08;16.70;99.90
7399;DHT22;3740;50.700;7.184;2023-09-19T03:17:34;16.70;99.90
7399;DHT22;3740;50.700;7.184;2023-09-19T03:20:01;16.80;99.90
7399;DHT22;3740;50.700;7.184;2023-09-19T03:22:28;16.80;99.90
7399;DHT22;3740;50.700;7.184;2023-09-19T03:24:53;16.70;99.90
7399;DHT22;3740;50.700;7.184;2023-09-19T03:27:19;16.70;99.90
7399;DHT22;3740;50.700;7.184;2023-09-19T03:29:46;16.60;99.90
7399;DHT22;3740;50.700;7.184;2023-09-19T03:32:12;16.50;99.90
7399;DHT22;3740;50.700;7.184;2023-09-19T03:34:38;16.50;99.90
7399;DHT22;3740;50.700;7.184;2023-09-19T03:37:09;16.50;99.90
7399;DHT22;3740;50.700;7.184;2023-09-19T03:39:35;16.50;99.90
7399;DHT22;3740;50.700;7.184;2023-09-19T03:42:01;16.50;99.90
7399;DHT22;3740;50.700;7.184;2023-09-19T03:44:28;16.50;99.90
7399;DHT22;3740;50.700;7.184;2023-09-19T03:46:54;16.60;99.90
7399;DHT22;3740;50.700;7.184;2023-09-19T03:49:21;16.60;99.90
7399;DHT22;3740;50.700;7.184;2023-09-19T03:51:46;16.60;99.90
7399;DHT22;3740;50.700;7.184;2023-09-19T03:54:12;16.60;99.90
7399;DHT22;3740;50.700;7.184;2023-09-19T03:56:38;16.60;99.90
7399;DHT22;3740;50.700;7.184;2023-09-19T03:59:03;16.50;99.90
7399;DHT22;3740;50.700;7.184;2023-09-19T04:01:29;16.50;99.90
7399;DHT22;3740;50.700;7.184;2023-09-19T04:03:57;16.50;99.90
7399;DHT22;3740;50.700;7.184;2023-09-19T04:06:23;16.50;99.90
7399;DHT22;3740;50.700;7.184;2023-09-19T04:08:48;16.40;99.90
7399;DHT22;3740;50.700;7.184;2023-09-19T04:11:14;16.40;99.90
7399;DHT22;3740;50.700;7.184;2023-09-19T04:13:40;16.40;99.90
7399;DHT22;3740;50.700;7.184;2023-09-19T04:16:05;16.40;99.90
7399;DHT22;3740;50.700;7.184;2023-09-19T04:18:32;16.40;99.90
7399;DHT22;3740;50.700;7.184;2023-09-19T04:20:59;16.50;99.90
7399;DHT22;3740;50.700;7.184;2023-09-19T04:23:28;16.50;99.90
7399;DHT22;3740;50.700;7.184;2023-09-19T04:25:53;16.50;99.90
7399;DHT22;3740;50.700;7.184;2023-09-19T04:28:19;16.40;99.90
7399;DHT22;3740;50.700;7.184;2023-09-19T04:30:44;16.50;99.90
7399;DHT22;3740;50.700;7.184;2023-09-19T04:33:10;16.50;99.90
7399;DHT22;3740;50.700;7.184;2023-09-19T04:35:37;16.40;99.90
7399;DHT22;3740;50.700;7.184;2023-09-19T04:38:04;16.40;99.90
7399;DHT22;3740;50.700;7.184;2023-09-19T04:40:32;16.40;99.90
7399;DHT22;3740;50.700;7.184;2023-09-19T04:42:59;16.40;99.90
7399;DHT22;3740;50.700;7.184;2023-09-19T04:45:26;16.30;99.90
7399;DHT22;3740;50.700;7.184;2023-09-19T04:47:52;16.40;99.90
7399;DHT22;3740;50.700;7.184;2023-09-19T04:50:19;16.30;99.90
7399;DHT22;3740;50.700;7.184;2023-09-19T04:52:49;16.30;99.90
7399;DHT22;3740;50.700;7.184;2023-09-19T04:55:17;16.30;99.90
7399;DHT22;3740;50.700;7.184;2023-09-19T04:57:50;16.30;99.90
7399;DHT22;3740;50.700;7.184;2023-09-19T05:00:19;16.30;99.90
7399;DHT22;3740;50.700;7.184;2023-09-19T05:02:52;16.20;99.90
7399;DHT22;3740;50.700;7.184;2023-09-19T05:05:18;16.30;99.90
7399;DHT22;3740;50.700;7.184;2023-09-19T05:07:45;16.20;99.90
7399;DHT22;3740;50.700;7.184;2023-09-19T05:10:11;16.30;99.90
7399;DHT22;3740;50.700;7.184;2023-09-19T05:12:38;16.20;99.90
7399;DHT22;3740;50.700;7.184;2023-09-19T05:15:04;16.20;99.90
7399;DHT22;3740;50.700;7.184;2023-09-19T05:17:32;16.20;99.90
7399;DHT22;3740;50.700;7.184;2023-09-19T05:19:58;16.20;99.90
7399;DHT22;3740;50.700;7.184;2023-09-19T05:22:26;17.30;99.90
7399;DHT22;3740;50.700;7.184;2023-09-19T05:24:52;16.20;99.90
7399;DHT22;3740;50.700;7.184;2023-09-19T05:27:18;16.20;99.90
7399;DHT22;3740;50.700;7.184;2023-09-19T05:29:44;16.20;99.90
7399;DHT22;3740;50.700;7.184;2023-09-19T05:32:10;16.20;99.90
7399;DHT22;3740;50.700;7.184;2023-09-19T05:34:36;16.10;99.90
7399;DHT22;3740;50.700;7.184;2023-09-19T05:37:02;16.10;99.90
7399;DHT22;3740;50.700;7.184;2023-09-19T05:39:27;16.10;99.90
7399;DHT22;3740;50.700;7.184;2023-09-19T05:41:53;16.00;99.90
7399;DHT22;3740;50.700;7.184;2023-09-19T05:44:18;16.00;99.90
7399;DHT22;3740;50.700;7.184;2023-09-19T05:46:44;16.10;99.90
7399;DHT22;3740;50.700;7.184;2023-09-19T05:49:11;16.00;99.90
7399;DHT22;3740;50.700;7.184;2023-09-19T05:51:37;16.00;99.90
7399;DHT22;3740;50.700;7.184;2023-09-19T05:54:02;16.10;99.90
7399;DHT22;3740;50.700;7.184;2023-09-19T05:56:30;16.10;99.90
7399;DHT22;3740;50.700;7.184;2023-09-19T05:58:55;16.10;99.90
7399;DHT22;3740;50.700;7.184;2023-09-19T06:01:21;16.10;99.90
7399;DHT22;3740;50.700;7.184;2023-09-19T06:03:47;17.20;99.90
7399;DHT22;3740;50.700;7.184;2023-09-19T06:06:13;16.10;99.90
7399;DHT22;3740;50.700;7.184;2023-09-19T06:08:39;16.10;99.90
7399;DHT22;3740;50.700;7.184;2023-09-19T06:11:05;16.10;99.90
7399;DHT22;3740;50.700;7.184;2023-09-19T06:13:32;16.20;99.90
7399;DHT22;3740;50.700;7.184;2023-09-19T06:15:59;16.10;99.90
7399;DHT22;3740;50.700;7.184;2023-09-19T06:18:28;16.10;99.90
7399;DHT22;3740;50.700;7.184;2023-09-19T06:20:55;16.10;99.90
7399;DHT22;3740;50.700;7.184;2023-09-19T06:23:21;16.10;99.90
7399;DHT22;3740;50.700;7.184;2023-09-19T06:25:46;16.10;99.90
7399;DHT22;3740;50.700;7.184;2023-09-19T06:28:12;16.10;99.90
7399;DHT22;3740;50.700;7.184;2023-09-19T06:30:38;16.20;99.90
7399;DHT22;3740;50.700;7.184;2023-09-19T06:33:07;16.20;99.90
7399;DHT22;3740;50.700;7.184;2023-09-19T06:35:33;16.30;99.90
7399;DHT22;3740;50.700;7.184;2023-09-19T06:38:02;16.30;99.90
7399;DHT22;3740;50.700;7.184;2023-09-19T06:40:28;16.30;99.90
7399;DHT22;3740;50.700;7.184;2023-09-19T06:42:56;16.30;99.90
7399;DHT22;3740;50.700;7.184;2023-09-19T06:45:23;16.30;99.90
7399;DHT22;3740;50.700;7.184;2023-09-19T06:47:52;16.30;99.90
7399;DHT22;3740;50.700;7.184;2023-09-19T06:50:21;16.30;99.90
7399;DHT22;3740;50.700;7.184;2023-09-19T06:52:51;16.40;99.90
7399;DHT22;3740;50.700;7.184;2023-09-19T06:55:21;16.40;99.90
7399;DHT22;3740;50.700;7.184;2023-09-19T06:57:50;16.40;99.90
7399;DHT22;3740;50.700;7.184;2023-09-19T07:00:16;16.40;99.90
7399;DHT22;3740;50.700;7.184;2023-09-19T07:02:56;16.30;99.90
7399;DHT22;3740;50.700;7.184;2023-09-19T07:05:23;16.30;99.90
7399;DHT22;3740;50.700;7.184;2023-09-19T07:07:48;16.30;99.90
7399;DHT22;3740;50.700;7.184;2023-09-19T07:10:14;16.40;99.90
7399;DHT22;3740;50.700;7.184;2023-09-19T07:12:39;16.40;99.90
7399;DHT22;3740;50.700;7.184;2023-09-19T07:15:06;16.50;99.90
7399;DHT22;3740;50.700;7.184;2023-09-19T07:17:32;16.50;99.90
7399;DHT22;3740;50.700;7.184;2023-09-19T07:19:58;16.50;99.90
7399;DHT22;3740;50.700;7.184;2023-09-19T07:22:26;16.50;99.90
7399;DHT22;3740;50.700;7.184;2023-09-19T07:24:51;16.50;99.90
7399;DHT22;3740;50.700;7.184;2023-09-19T07:27:17;16.60;99.90
7399;DHT22;3740;50.700;7.184;2023-09-19T07:29:43;16.60;99.90
7399;DHT22;3740;50.700;7.184;2023-09-19T07:32:08;16.60;99.90
7399;DHT22;3740;50.700;7.184;2023-09-19T07:34:35;16.50;99.90
7399;DHT22;3740;50.700;7.184;2023-09-19T07:37:01;16.50;99.90
7399;DHT22;3740;50.700;7.184;2023-09-19T07:39:28;16.60;99.90
7399;DHT22;3740;50.700;7.184;2023-09-19T07:41:53;16.60;99.90
7399;DHT22;3740;50.700;7.184;2023-09-19T07:44:19;16.60;99.90
7399;DHT22;3740;50.700;7.184;2023-09-19T07:46:45;16.70;99.90
7399;DHT22;3740;50.700;7.184;2023-09-19T07:49:10;16.70;99.90
7399;DHT22;3740;50.700;7.184;2023-09-19T07:51:36;16.70;99.90
7399;DHT22;3740;50.700;7.184;2023-09-19T07:54:02;16.80;99.90
7399;DHT22;3740;50.700;7.184;2023-09-19T07:56:28;16.90;99.90
7399;DHT22;3740;50.700;7.184;2023-09-19T07:58:53;16.90;99.90
7399;DHT22;3740;50.700;7.184;2023-09-19T08:01:19;16.90;99.90
7399;DHT22;3740;50.700;7.184;2023-09-19T08:03:44;16.90;99.90
7399;DHT22;3740;50.700;7.184;2023-09-19T08:06:10;17.00;99.90
7399;DHT22;3740;50.700;7.184;2023-09-19T08:08:37;17.10;99.90
7399;DHT22;3740;50.700;7.184;2023-09-19T08:11:03;17.00;99.90
7399;DHT22;3740;50.700;7.184;2023-09-19T08:13:37;17.10;99.90
7399;DHT22;3740;50.700;7.184;2023-09-19T08:16:03;17.20;99.90
7399;DHT22;3740;50.700;7.184;2023-09-19T08:18:30;17.30;99.90
7399;DHT22;3740;50.700;7.184;2023-09-19T08:20:55;17.40;99.90
7399;DHT22;3740;50.700;7.184;2023-09-19T08:23:24;17.40;99.90
7399;DHT22;3740;50.700;7.184;2023-09-19T08:25:49;17.40;99.90
7399;DHT22;3740;50.700;7.184;2023-09-19T08:28:15;17.50;99.90
7399;DHT22;3740;50.700;7.184;2023-09-19T08:30:45;17.40;99.90
7399;DHT22;3740;50.700;7.184;2023-09-19T08:33:11;17.50;99.90
7399;DHT22;3740;50.700;7.184;2023-09-19T08:35:37;17.50;99.90
7399;DHT22;3740;50.700;7.184;2023-09-19T08:38:05;17.60;99.90
7399;DHT22;3740;50.700;7.184;2023-09-19T08:40:31;17.60;99.90
7399;DHT22;3740;50.700;7.184;2023-09-19T08:42:59;17.70;99.90
7399;DHT22;3740;50.700;7.184;2023-09-19T08:45:26;17.60;99.90
7399;DHT22;3740;50.700;7.184;2023-09-19T08:48:23;17.70;99.90
7399;DHT22;3740;50.700;7.184;2023-09-19T08:51:04;17.80;99.90
7399;DHT22;3740;50.700;7.184;2023-09-19T08:53:41;17.90;99.90
7399;DHT22;3740;50.700;7.184;2023-09-19T08:56:10;18.00;99.90
7399;DHT22;3740;50.700;7.184;2023-09-19T08:58:44;18.10;99.90
7399;DHT22;3740;50.700;7.184;2023-09-19T09:01:11;18.10;99.90
7399;DHT22;3740;50.700;7.184;2023-09-19T09:03:40;18.00;99.90
7399;DHT22;3740;50.700;7.184;2023-09-19T09:06:09;18.10;99.90
7399;DHT22;3740;50.700;7.184;2023-09-19T09:08:36;18.10;99.90
7399;DHT22;3740;50.700;7.184;2023-09-19T09:11:02;18.20;99.90
7399;DHT22;3740;50.700;7.184;2023-09-19T09:13:29;18.30;99.90
7399;DHT22;3740;50.700;7.184;2023-09-19T09:15:54;18.30;99.90
7399;DHT22;3740;50.700;7.184;2023-09-19T09:18:20;18.40;99.90
7399;DHT22;3740;50.700;7.184;2023-09-19T09:20:46;18.50;99.90
7399;DHT22;3740;50.700;7.184;2023-09-19T09:23:12;18.40;99.90
7399;DHT22;3740;50.700;7.184;2023-09-19T09:25:49;18.40;99.90
7399;DHT22;3740;50.700;7.184;2023-09-19T09:28:23;18.40;99.90
7399;DHT22;3740;50.700;7.184;2023-09-19T09:30:49;18.40;99.90
7399;DHT22;3740;50.700;7.184;2023-09-19T09:33:18;18.40;99.90
7399;DHT22;3740;50.700;7.184;2023-09-19T09:35:51;18.40;99.90
7399;DHT22;3740;50.700;7.184;2023-09-19T09:38:19;18.50;99.90
7399;DHT22;3740;50.700;7.184;2023-09-19T09:40:52;18.70;99.90
7399;DHT22;3740;50.700;7.184;2023-09-19T09:43:39;18.80;99.90
7399;DHT22;3740;50.700;7.184;2023-09-19T09:49:02;18.90;99.90
7399;DHT22;3740;50.700;7.184;2023-09-19T09:51:42;19.10;99.90
7399;DHT22;3740;50.700;7.184;2023-09-19T09:54:13;19.00;99.90
7399;DHT22;3740;50.700;7.184;2023-09-19T09:57:12;19.10;99.90
7399;DHT22;3740;50.700;7.184;2023-09-19T09:59:55;19.00;99.90
7399;DHT22;3740;50.700;7.184;2023-09-19T10:02:29;19.20;99.90
7399;DHT22;3740;50.700;7.184;2023-09-19T10:04:58;19.30;99.90
7399;DHT22;3740;50.700;7.184;2023-09-19T10:07:33;19.30;99.90
7399;DHT22;3740;50.700;7.184;2023-09-19T10:10:02;19.60;99.90
7399;DHT22;3740;50.700;7.184;2023-09-19T10:12:48;19.70;99.90
7399;DHT22;3740;50.700;7.184;2023-09-19T10:15:16;19.80;99.90
7399;DHT22;3740;50.700;7.184;2023-09-19T10:17:46;19.90;99.90
7399;DHT22;3740;50.700;7.184;2023-09-19T10:20:14;20.20;99.90
7399;DHT22;3740;50.700;7.184;2023-09-19T10:23:03;20.30;99.90
7399;DHT22;3740;50.700;7.184;2023-09-19T10:25:29;20.50;99.90
7399;DHT22;3740;50.700;7.184;2023-09-19T10:27:57;19.80;99.90
7399;DHT22;3740;50.700;7.184;2023-09-19T10:30:25;20.50;99.90
7399;DHT22;3740;50.700;7.184;2023-09-19T10:33:01;21.00;99.90
7399;DHT22;3740;50.700;7.184;2023-09-19T10:35:28;21.90;99.90
7399;DHT22;3740;50.700;7.184;2023-09-19T10:38:00;22.40;99.90
7399;DHT22;3740;50.700;7.184;2023-09-19T10:40:27;23.00;99.90
7399;DHT22;3740;50.700;7.184;2023-09-19T10:43:03;23.80;99.90
7399;DHT22;3740;50.700;7.184;2023-09-19T10:45:31;25.20;99.90
7399;DHT22;3740;50.700;7.184;2023-09-19T10:47:58;26.80;96.60
7399;DHT22;3740;50.700;7.184;2023-09-19T10:50:24;27.60;93.50
7399;DHT22;3740;50.700;7.184;2023-09-19T10:56:04;29.50;82.40
7399;DHT22;3740;50.700;7.184;2023-09-19T10:58:40;29.10;78.20
7399;DHT22;3740;50.700;7.184;2023-09-19T11:01:11;28.40;79.60
7399;DHT22;3740;50.700;7.184;2023-09-19T11:03:44;28.20;81.00
7399;DHT22;3740;50.700;7.184;2023-09-19T11:06:12;27.90;79.60
7399;DHT22;3740;50.700;7.184;2023-09-19T11:30:47;26.60;85.70
7399;DHT22;3740;50.700;7.184;2023-09-19T11:36:13;26.50;83.20
7399;DHT22;3740;50.700;7.184;2023-09-19T11:49:18;25.80;83.40
7399;DHT22;3740;50.700;7.184;2023-09-19T11:51:50;25.30;85.30
7399;DHT22;3740;50.700;7.184;2023-09-19T11:54:20;25.10;87.10
7399;DHT22;3740;50.700;7.184;2023-09-19T11:56:51;25.20;87.00
7399;DHT22;3740;50.700;7.184;2023-09-19T11:59:20;25.20;88.10
7399;DHT22;3740;50.700;7.184;2023-09-19T12:01:51;25.40;89.20
7399;DHT22;3740;50.700;7.184;2023-09-19T12:04:43;25.40;87.00
7399;DHT22;3740;50.700;7.184;2023-09-19T12:07:16;25.80;88.70
7399;DHT22;3740;50.700;7.184;2023-09-19T12:09:48;26.30;81.50
7399;DHT22;3740;50.700;7.184;2023-09-19T12:12:23;26.10;81.10
7399;DHT22;3740;50.700;7.184;2023-09-19T12:14:49;25.80;82.90
7399;DHT22;3740;50.700;7.184;2023-09-19T12:17:16;25.30;84.80
7399;DHT22;3740;50.700;7.184;2023-09-19T12:20:10;24.90;85.80
7399;DHT22;3740;50.700;7.184;2023-09-19T12:22:42;24.80;90.80
7399;DHT22;3740;50.700;7.184;2023-09-19T12:25:09;24.60;91.30
7399;DHT22;3740;50.700;7.184;2023-09-19T12:27:47;25.00;90.30
7399;DHT22;3740;50.700;7.184;2023-09-19T12:30:14;24.70;87.40
7399;DHT22;3740;50.700;7.184;2023-09-19T12:32:40;24.30;90.80
7399;DHT22;3740;50.700;7.184;2023-09-19T12:35:09;24.40;91.40
7399;DHT22;3740;50.700;7.184;2023-09-19T12:37:37;24.20;91.60
7399;DHT22;3740;50.700;7.184;2023-09-19T12:40:09;24.20;91.00
7399;DHT22;3740;50.700;7.184;2023-09-19T12:42:44;24.10;90.70
7399;DHT22;3740;50.700;7.184;2023-09-19T12:45:11;24.00;91.60
7399;DHT22;3740;50.700;7.184;2023-09-19T12:47:39;23.90;93.00
7399;DHT22;3740;50.700;7.184;2023-09-19T12:50:09;23.90;93.50
7399;DHT22;3740;50.700;7.184;2023-09-19T12:52:40;23.90;92.10
7399;DHT22;3740;50.700;7.184;2023-09-19T12:55:06;23.80;93.20
7399;DHT22;3740;50.700;7.184;2023-09-19T12:57:35;23.90;92.70
7399;DHT22;3740;50.700;7.184;2023-09-19T13:00:03;23.80;92.70
7399;DHT22;3740;50.700;7.184;2023-09-19T13:02:31;23.70;91.30
7399;DHT22;3740;50.700;7.184;2023-09-19T13:04:58;23.70;94.50
7399;DHT22;3740;50.700;7.184;2023-09-19T13:07:42;23.60;94.30
7399;DHT22;3740;50.700;7.184;2023-09-19T13:10:13;23.30;93.20
7399;DHT22;3740;50.700;7.184;2023-09-19T13:12:42;23.30;94.50
7399;DHT22;3740;50.700;7.184;2023-09-19T13:15:13;23.60;94.20
7399;DHT22;3740;50.700;7.184;2023-09-19T13:17:48;23.70;92.80
7399;DHT22;3740;50.700;7.184;2023-09-19T13:20:26;23.70;92.40
7399;DHT22;3740;50.700;7.184;2023-09-19T13:22:53;23.60;92.70
7399;DHT22;3740;50.700;7.184;2023-09-19T13:25:23;23.40;97.00
7399;DHT22;3740;50.700;7.184;2023-09-19T13:27:51;23.50;94.40
7399;DHT22;3740;50.700;7.184;2023-09-19T13:30:18;23.50;94.00
7399;DHT22;3740;50.700;7.184;2023-09-19T13:32:44;23.30;94.10
7399;DHT22;3740;50.700;7.184;2023-09-19T13:35:11;23.10;94.60
7399;DHT22;3740;50.700;7.184;2023-09-19T13:37:38;23.10;94.30
7399;DHT22;3740;50.700;7.184;2023-09-19T13:40:10;23.00;93.90
7399;DHT22;3740;50.700;7.184;2023-09-19T13:42:37;23.10;93.60
7399;DHT22;3740;50.700;7.184;2023-09-19T13:45:06;22.90;95.90
7399;DHT22;3740;50.700;7.184;2023-09-19T13:47:33;23.10;95.10
7399;DHT22;3740;50.700;7.184;2023-09-19T13:50:00;23.10;94.80
7399;DHT22;3740;50.700;7.184;2023-09-19T13:52:26;23.10;97.30
7399;DHT22;3740;50.700;7.184;2023-09-19T13:54:55;23.20;96.20
7399;DHT22;3740;50.700;7.184;2023-09-19T13:57:22;23.10;95.20
7399;DHT22;3740;50.700;7.184;2023-09-19T13:59:48;23.00;95.80
7399;DHT22;3740;50.700;7.184;2023-09-19T14:02:14;23.00;96.20
7399;DHT22;3740;50.700;7.184;2023-09-19T14:04:40;23.10;96.90
7399;DHT22;3740;50.700;7.184;2023-09-19T14:07:06;23.10;96.40
7399;DHT22;3740;50.700;7.184;2023-09-19T14:09:33;23.20;96.20
7399;DHT22;3740;50.700;7.184;2023-09-19T14:11:59;23.20;95.60
7399;DHT22;3740;50.700;7.184;2023-09-19T14:14:24;23.30;96.40
7399;DHT22;3740;50.700;7.184;2023-09-19T14:16:50;23.10;95.10
7399;DHT22;3740;50.700;7.184;2023-09-19T14:19:17;23.10;95.90
7399;DHT22;3740;50.700;7.184;2023-09-19T14:21:43;23.10;95.70
7399;DHT22;3740;50.700;7.184;2023-09-19T14:24:09;23.00;95.80
7399;DHT22;3740;50.700;7.184;2023-09-19T14:26:38;23.00;96.40
7399;DHT22;3740;50.700;7.184;2023-09-19T14:29:04;23.10;96.10
7399;DHT22;3740;50.700;7.184;2023-09-19T14:31:33;23.00;96.30
7399;DHT22;3740;50.700;7.184;2023-09-19T14:33:59;23.00;95.70
7399;DHT22;3740;50.700;7.184;2023-09-19T14:36:26;22.90;95.10
7399;DHT22;3740;50.700;7.184;2023-09-19T14:38:55;22.80;95.50
7399;DHT22;3740;50.700;7.184;2023-09-19T14:41:22;22.70;95.70
7399;DHT22;3740;50.700;7.184;2023-09-19T14:43:49;22.60;95.90
7399;DHT22;3740;50.700;7.184;2023-09-19T14:46:14;22.60;95.70
7399;DHT22;3740;50.700;7.184;2023-09-19T14:48:41;22.50;95.80
7399;DHT22;3740;50.700;7.184;2023-09-19T14:51:07;22.30;95.50
7399;DHT22;3740;50.700;7.184;2023-09-19T14:53:37;22.30;96.70
7399;DHT22;3740;50.700;7.184;2023-09-19T14:56:04;22.30;98.10
7399;DHT22;3740;50.700;7.184;2023-09-19T14:58:31;22.40;96.20
7399;DHT22;3740;50.700;7.184;2023-09-19T15:01:10;22.40;96.80
7399;DHT22;3740;50.700;7.184;2023-09-19T15:03:36;22.30;96.10
7399;DHT22;3740;50.700;7.184;2023-09-19T15:06:20;22.20;96.50
7399;DHT22;3740;50.700;7.184;2023-09-19T15:08:47;22.10;96.10
7399;DHT22;3740;50.700;7.184;2023-09-19T15:11:14;22.10;96.60
7399;DHT22;3740;50.700;7.184;2023-09-19T15:13:42;22.10;96.50
7399;DHT22;3740;50.700;7.184;2023-09-19T15:16:08;22.00;97.80
7399;DHT22;3740;50.700;7.184;2023-09-19T15:18:42;22.00;99.60
7399;DHT22;3740;50.700;7.184;2023-09-19T15:21:09;22.00;97.30
7399;DHT22;3740;50.700;7.184;2023-09-19T15:23:36;22.10;97.00
7399;DHT22;3740;50.700;7.184;2023-09-19T15:26:10;22.20;96.20
7399;DHT22;3740;50.700;7.184;2023-09-19T15:28:37;22.40;95.90
7399;DHT22;3740;50.700;7.184;2023-09-19T15:31:08;22.40;95.70
7399;DHT22;3740;50.700;7.184;2023-09-19T15:33:34;22.30;96.90
7399;DHT22;3740;50.700;7.184;2023-09-19T15:36:02;22.20;97.40
7399;DHT22;3740;50.700;7.184;2023-09-19T15:38:29;22.20;96.80
7399;DHT22;3740;50.700;7.184;2023-09-19T15:40:55;22.20;97.60
7399;DHT22;3740;50.700;7.184;2023-09-19T15:43:20;22.20;99.90
7399;DHT22;3740;50.700;7.184;2023-09-19T15:45:47;22.30;99.90
7399;DHT22;3740;50.700;7.184;2023-09-19T15:48:13;22.30;99.90
7399;DHT22;3740;50.700;7.184;2023-09-19T15:50:39;22.20;99.10
7399;DHT22;3740;50.700;7.184;2023-09-19T15:53:07;22.20;98.40
7399;DHT22;3740;50.700;7.184;2023-09-19T15:55:38;22.00;98.70
7399;DHT22;3740;50.700;7.184;2023-09-19T15:58:05;21.90;99.10
7399;DHT22;3740;50.700;7.184;2023-09-19T16:00:32;21.80;99.70
7399;DHT22;3740;50.700;7.184;2023-09-19T16:03:00;21.60;99.90
7399;DHT22;3740;50.700;7.184;2023-09-19T16:05:26;21.60;99.90
7399;DHT22;3740;50.700;7.184;2023-09-19T16:07:52;21.60;99.90
7399;DHT22;3740;50.700;7.184;2023-09-19T16:10:18;21.50;99.90
7399;DHT22;3740;50.700;7.184;2023-09-19T16:12:43;21.50;99.90
7399;DHT22;3740;50.700;7.184;2023-09-19T16:15:09;21.60;99.90
7399;DHT22;3740;50.700;7.184;2023-09-19T16:17:39;21.40;99.90
7399;DHT22;3740;50.700;7.184;2023-09-19T16:20:06;21.30;99.90
7399;DHT22;3740;50.700;7.184;2023-09-19T16:22:38;21.20;99.90
7399;DHT22;3740;50.700;7.184;2023-09-19T16:25:05;21.30;99.90
7399;DHT22;3740;50.700;7.184;2023-09-19T16:27:31;21.20;99.90
7399;DHT22;3740;50.700;7.184;2023-09-19T16:29:56;21.30;99.90
7399;DHT22;3740;50.700;7.184;2023-09-19T16:32:22;21.30;99.90
7399;DHT22;3740;50.700;7.184;2023-09-19T16:34:47;21.20;99.90
7399;DHT22;3740;50.700;7.184;2023-09-19T16:37:13;21.20;99.90
7399;DHT22;3740;50.700;7.184;2023-09-19T16:39:42;21.10;99.90
7399;DHT22;3740;50.700;7.184;2023-09-19T16:42:08;21.10;99.90
7399;DHT22;3740;50.700;7.184;2023-09-19T16:44:36;21.10;99.90
7399;DHT22;3740;50.700;7.184;2023-09-19T16:47:01;21.00;99.90
7399;DHT22;3740;50.700;7.184;2023-09-19T16:49:28;20.90;99.90
7399;DHT22;3740;50.700;7.184;2023-09-19T16:51:55;20.90;99.90
7399;DHT22;3740;50.700;7.184;2023-09-19T16:54:20;20.80;99.90
7399;DHT22;3740;50.700;7.184;2023-09-19T16:56:46;20.80;99.90
7399;DHT22;3740;50.700;7.184;2023-09-19T16:59:12;20.80;99.90
7399;DHT22;3740;50.700;7.184;2023-09-19T17:01:38;20.70;99.90
7399;DHT22;3740;50.700;7.184;2023-09-19T17:04:04;20.70;99.90
7399;DHT22;3740;50.700;7.184;2023-09-19T17:06:31;20.60;99.90